createdAt,value
2017-06-26T04:35:11.388Z,17.47
2017-06-26T04:37:39.737Z,17.57
2017-06-26T04:40:08.149Z,17.63
2017-06-26T04:42:36.515Z,17.81
2017-06-26T04:45:04.943Z,17.90
2017-06-26T04:47:33.288Z,17.99
2017-06-26T04:50:01.650Z,17.97
2017-06-26T04:52:30.025Z,18.08
2017-06-26T04:54:58.494Z,18.12
2017-06-26T04:57:26.841Z,18.18
2017-06-26T04:59:55.200Z,18.26
2017-06-26T05:02:23.553Z,18.60
2017-06-26T05:04:51.913Z,18.55
2017-06-26T05:07:20.326Z,18.53
2017-06-26T05:09:48.652Z,18.47
2017-06-26T05:12:17.040Z,18.65
2017-06-26T05:14:45.402Z,18.81
2017-06-26T05:17:13.745Z,18.85
2017-06-26T05:19:42.106Z,18.99
2017-06-26T05:22:10.518Z,18.92
2017-06-26T05:24:38.872Z,19.03
2017-06-26T05:27:07.230Z,19.21
2017-06-26T05:29:35.605Z,19.40
2017-06-26T05:32:04.718Z,19.29
2017-06-26T05:34:33.057Z,19.42
2017-06-26T05:37:01.425Z,19.49
2017-06-26T05:39:29.761Z,19.44
2017-06-26T05:41:58.101Z,19.56
2017-06-26T05:44:26.451Z,19.73
2017-06-26T05:46:54.790Z,19.86
2017-06-26T05:49:23.134Z,20.04
2017-06-26T05:51:51.484Z,20.50
2017-06-26T05:54:19.821Z,20.58
2017-06-26T05:56:48.158Z,20.66
2017-06-26T05:59:16.522Z,21.00
2017-06-26T06:01:44.897Z,21.40
2017-06-26T06:04:13.268Z,21.30
2017-06-26T06:06:41.621Z,21.44
2017-06-26T06:09:10.025Z,21.55
2017-06-26T06:11:38.381Z,21.81
2017-06-26T06:14:06.709Z,21.81
2017-06-26T06:16:35.061Z,21.71
2017-06-26T06:19:03.510Z,22.03
2017-06-26T06:21:31.837Z,22.09
2017-06-26T06:24:00.177Z,22.17
2017-06-26T06:26:28.520Z,22.23
2017-06-26T06:28:56.878Z,22.14
2017-06-26T06:31:25.223Z,22.27
2017-06-26T06:33:53.565Z,22.32
2017-06-26T06:36:21.959Z,22.46
2017-06-26T06:38:50.290Z,22.46
2017-06-26T06:41:18.737Z,22.56
2017-06-26T06:43:47.090Z,22.46
2017-06-26T06:46:15.433Z,22.41
2017-06-26T06:48:43.797Z,22.66
2017-06-26T06:51:12.292Z,22.50
2017-06-26T06:53:40.618Z,22.43
2017-06-26T06:56:08.965Z,22.55
2017-06-26T06:58:37.303Z,22.48
2017-06-26T07:01:05.654Z,22.34
2017-06-26T07:03:33.983Z,22.60
2017-06-26T07:06:02.335Z,22.85
2017-06-26T07:08:30.700Z,22.70
2017-06-26T07:10:59.021Z,22.78
2017-06-26T07:13:27.363Z,22.61
2017-06-26T07:15:55.722Z,22.40
2017-06-26T07:18:24.059Z,22.37
2017-06-26T07:20:52.401Z,22.31
2017-06-26T07:23:20.742Z,22.15
2017-06-26T07:25:49.084Z,22.35
2017-06-26T07:28:17.413Z,22.29
2017-06-26T07:30:45.749Z,22.36
2017-06-26T07:33:14.085Z,22.16
2017-06-26T07:35:42.462Z,22.35
2017-06-26T07:38:10.792Z,22.43
2017-06-26T07:40:39.129Z,22.16
2017-06-26T07:43:07.482Z,22.15
2017-06-26T07:45:35.821Z,22.44
2017-06-26T07:48:04.153Z,22.64
2017-06-26T07:50:32.497Z,22.74
2017-06-26T07:53:00.817Z,23.01
2017-06-26T07:55:29.178Z,23.15
2017-06-26T07:57:57.532Z,23.44
2017-06-26T08:00:25.861Z,23.51
2017-06-26T08:02:54.390Z,23.36
2017-06-26T08:05:22.758Z,23.58
2017-06-26T08:07:51.104Z,23.54
2017-06-26T08:10:19.481Z,23.77
2017-06-26T08:12:47.838Z,23.80
2017-06-26T08:15:16.188Z,23.89
2017-06-26T08:17:44.521Z,24.09
2017-06-26T08:20:12.888Z,24.15
2017-06-26T08:22:41.246Z,24.36
2017-06-26T08:25:09.607Z,24.61
2017-06-26T08:27:37.937Z,24.47
2017-06-26T08:30:06.325Z,24.61
2017-06-26T08:32:34.657Z,24.81
2017-06-26T08:35:03.078Z,25.07
2017-06-26T08:37:31.410Z,25.57
2017-06-26T08:39:59.745Z,25.07
2017-06-26T08:42:28.079Z,25.06
2017-06-26T08:44:56.413Z,25.24
2017-06-26T08:47:24.741Z,25.00
2017-06-26T08:49:53.080Z,25.05
2017-06-26T08:52:21.418Z,25.64
2017-06-26T08:54:49.740Z,25.46
2017-06-26T08:57:18.089Z,25.31
2017-06-26T08:59:46.410Z,25.52
2017-06-26T09:02:14.753Z,25.55
2017-06-26T09:04:43.128Z,25.45
2017-06-26T09:07:11.464Z,26.14
2017-06-26T09:09:39.793Z,25.99
2017-06-26T09:12:08.135Z,26.10
2017-06-26T09:14:36.496Z,25.99
2017-06-26T09:17:04.850Z,25.91
2017-06-26T09:19:33.433Z,25.81
2017-06-26T09:22:01.757Z,26.25
2017-06-26T09:24:30.187Z,25.98
2017-06-26T09:26:58.509Z,26.04
2017-06-26T09:29:26.851Z,26.01
2017-06-26T09:31:55.186Z,26.50
2017-06-26T09:34:23.540Z,26.54
2017-06-26T09:36:51.849Z,26.16
2017-06-26T09:39:20.189Z,26.42
2017-06-26T09:41:48.522Z,26.52
2017-06-26T09:44:16.861Z,26.53
2017-06-26T09:46:45.190Z,25.95
2017-06-26T09:49:13.662Z,26.63
2017-06-26T09:51:42.007Z,26.60
2017-06-26T09:54:10.368Z,27.01
2017-06-26T09:56:38.706Z,27.01
2017-06-26T09:59:07.064Z,26.86
2017-06-26T10:01:35.425Z,27.06
2017-06-26T10:04:03.762Z,27.22
2017-06-26T10:06:32.090Z,27.61
2017-06-26T10:09:00.425Z,27.54
2017-06-26T10:11:28.773Z,26.90
2017-06-26T10:13:57.133Z,27.46
2017-06-26T10:16:25.484Z,27.40
2017-06-26T10:18:53.824Z,26.96
2017-06-26T10:21:22.186Z,27.28
2017-06-26T10:23:50.514Z,27.38
2017-06-26T10:26:18.862Z,27.10
2017-06-26T10:28:47.266Z,27.37
2017-06-26T10:31:15.621Z,26.87
2017-06-26T10:33:43.957Z,27.11
2017-06-26T10:36:12.308Z,27.25
2017-06-26T10:38:40.654Z,27.34
2017-06-26T10:41:09.829Z,27.33
2017-06-26T10:43:38.165Z,27.91
2017-06-26T10:46:06.493Z,27.68
2017-06-26T10:48:34.829Z,27.31
2017-06-26T10:51:03.193Z,27.51
2017-06-26T10:53:31.517Z,27.72
2017-06-26T10:55:59.856Z,27.58
2017-06-26T10:58:28.173Z,27.83
2017-06-26T11:00:56.519Z,27.88
2017-06-26T11:03:24.853Z,28.22
2017-06-26T11:05:53.189Z,28.22
2017-06-26T11:08:21.547Z,27.92
2017-06-26T11:10:49.896Z,27.89
2017-06-26T11:13:18.217Z,28.12
2017-06-26T11:15:46.560Z,28.08
2017-06-26T11:18:14.904Z,28.31
2017-06-26T11:20:43.243Z,28.31
2017-06-26T11:23:11.569Z,28.54
2017-06-26T11:25:39.916Z,28.23
2017-06-26T11:28:08.245Z,28.31
2017-06-26T11:30:36.593Z,28.65
2017-06-26T11:33:04.944Z,28.42
2017-06-26T11:35:33.273Z,28.01
2017-06-26T11:38:01.605Z,27.87
2017-06-26T11:40:29.941Z,28.88
2017-06-26T11:42:58.265Z,29.27
2017-06-26T11:45:26.684Z,28.63
2017-06-26T11:47:54.993Z,28.83
2017-06-26T11:50:23.366Z,29.18
2017-06-26T11:52:51.703Z,29.56
2017-06-26T11:55:20.312Z,29.70
2017-06-26T11:57:48.617Z,28.97
2017-06-26T12:00:17.002Z,29.30
2017-06-26T12:02:45.441Z,29.25
2017-06-26T12:05:13.796Z,29.10
2017-06-26T12:07:42.116Z,29.35
2017-06-26T12:10:10.498Z,29.24
2017-06-26T12:12:38.863Z,29.46
2017-06-26T12:15:07.249Z,29.17
2017-06-26T12:17:35.616Z,29.47
2017-06-26T12:20:04.016Z,29.81
2017-06-26T12:22:32.341Z,29.54
2017-06-26T12:25:00.711Z,29.54
2017-06-26T12:27:29.038Z,29.82
2017-06-26T12:29:57.414Z,31.37
2017-06-26T12:32:25.734Z,32.22
2017-06-26T12:34:54.125Z,32.48
2017-06-26T12:37:22.457Z,31.79
2017-06-26T12:39:50.812Z,32.81
2017-06-26T12:42:19.137Z,33.01
2017-06-26T12:44:47.475Z,34.68
2017-06-26T12:47:15.840Z,34.04
2017-06-26T12:49:44.168Z,34.01
2017-06-26T21:33:29.945Z,62.68
2017-06-26T22:42:18.796Z,21.92
